Time,TemperatureF,DewpointF,PressureIn,WindDirection,WindDirectionDegrees,WindSpeedMPH,WindSpeedGustMPH,Humidity,HourlyPrecipIn,Conditions,Clouds,dailyrainin,SolarRadiationWatts/m^2,SoftwareType,DateUTC
2013-09-17 00:02:00,57.0,27.0,-100.00,SSE,155,1.0,7.0,31,0.00,,,0.00,0.000000,,2013-09-17 06:02:00,
2013-09-17 00:12:00,57.0,27.0,-100.00,SSE,155,1.0,7.0,31,0.00,,,0.00,0.000000,,2013-09-17 06:12:00,
2013-09-17 00:21:00,57.0,27.0,-100.00,SSE,155,1.0,7.0,31,0.00,,,0.00,0.000000,,2013-09-17 06:21:00,
2013-09-17 00:52:00,55.0,32.0,-100.00,SE,139,0.0,6.0,41,0.00,,,0.00,0.000000,,2013-09-17 06:52:00,
2013-09-17 01:02:00,55.0,32.0,-100.00,SE,139,0.0,6.0,41,0.00,,,0.00,0.000000,,2013-09-17 07:02:00,
2013-09-17 01:11:00,55.0,32.0,-100.00,SE,139,0.0,6.0,41,0.00,,,0.00,0.000000,,2013-09-17 07:11:00,
2013-09-17 01:23:00,55.0,32.0,-100.00,SE,139,0.0,6.0,41,0.00,,,0.00,0.000000,,2013-09-17 07:23:00,
2013-09-17 01:52:00,51.0,32.0,-100.00,NE,34,0.0,4.0,48,0.00,,,-99.99,0.000000,,2013-09-17 07:52:00,
2013-09-17 02:02:00,51.0,32.0,-100.00,NE,34,0.0,4.0,48,0.00,,,-99.99,0.000000,,2013-09-17 08:02:00,
2013-09-17 02:12:00,51.0,32.0,-100.00,NE,34,0.0,4.0,48,0.00,,,-99.99,0.000000,,2013-09-17 08:12:00,
2013-09-17 02:21:00,51.0,32.0,-100.00,NE,34,0.0,4.0,48,0.00,,,-99.99,0.000000,,2013-09-17 08:21:00,
2013-09-17 02:52:00,51.0,35.0,-100.00,ESE,102,0.0,0.0,54,0.00,,,0.00,0.000000,,2013-09-17 08:52:00,
2013-09-17 03:02:00,51.0,35.0,-100.00,ESE,102,0.0,0.0,54,0.00,,,0.00,0.000000,,2013-09-17 09:02:00,
2013-09-17 03:12:00,51.0,35.0,-100.00,ESE,102,0.0,0.0,54,0.00,,,0.00,0.000000,,2013-09-17 09:12:00,
2013-09-17 03:22:00,51.0,35.0,-100.00,ESE,102,0.0,0.0,54,0.00,,,0.00,0.000000,,2013-09-17 09:22:00,
2013-09-17 03:53:00,47.0,37.0,-100.00,ENE,73,0.0,0.0,67,0.00,,,0.00,0.000000,,2013-09-17 09:53:00,
2013-09-17 04:03:00,47.0,37.0,-100.00,ENE,73,0.0,0.0,67,0.00,,,0.00,0.000000,,2013-09-17 10:03:00,
2013-09-17 04:12:00,47.0,37.0,-100.00,ENE,73,0.0,0.0,67,0.00,,,0.00,0.000000,,2013-09-17 10:12:00,
2013-09-17 04:23:00,47.0,37.0,-100.00,ENE,73,0.0,0.0,67,0.00,,,0.00,0.000000,,2013-09-17 10:23:00,
2013-09-17 04:53:00,45.0,35.0,-100.00,SE,129,0.0,0.0,68,0.00,,,0.00,0.000000,,2013-09-17 10:53:00,
2013-09-17 05:03:00,45.0,35.0,-100.00,SE,129,0.0,0.0,68,0.00,,,0.00,0.000000,,2013-09-17 11:03:00,
2013-09-17 05:11:00,45.0,35.0,-100.00,SE,129,0.0,0.0,68,0.00,,,0.00,0.000000,,2013-09-17 11:11:00,
2013-09-17 05:22:00,45.0,35.0,-100.00,SE,129,0.0,0.0,68,0.00,,,0.00,0.000000,,2013-09-17 11:22:00,
2013-09-17 05:52:00,43.0,36.0,-100.00,NNW,345,0.0,0.0,75,0.00,,,0.00,0.000000,,2013-09-17 11:52:00,
2013-09-17 06:02:00,43.0,36.0,-100.00,NNW,345,0.0,0.0,75,0.00,,,0.00,0.000000,,2013-09-17 12:02:00,
2013-09-17 06:12:00,43.0,36.0,-100.00,NNW,345,0.0,0.0,75,0.00,,,0.00,0.000000,,2013-09-17 12:12:00,
2013-09-17 06:21:00,43.0,36.0,-100.00,NNW,345,0.0,0.0,75,0.00,,,0.00,0.000000,,2013-09-17 12:21:00,
2013-09-17 06:52:00,41.0,36.0,-100.00,ESE,109,0.0,0.0,82,0.00,,,-99.99,0.000000,,2013-09-17 12:52:00,
2013-09-17 07:02:00,41.0,36.0,-100.00,ESE,109,0.0,0.0,82,0.00,,,-99.99,0.000000,,2013-09-17 13:02:00,
2013-09-17 07:11:00,41.0,36.0,-100.00,ESE,109,0.0,0.0,82,0.00,,,-99.99,0.000000,,2013-09-17 13:11:00,
2013-09-17 07:22:00,41.0,36.0,-100.00,ESE,109,0.0,0.0,82,0.00,,,-99.99,0.000000,,2013-09-17 13:22:00,
2013-09-17 07:52:00,41.0,37.0,-100.00,WNW,286,0.0,0.0,87,0.00,,,0.00,0.000000,,2013-09-17 13:52:00,
2013-09-17 08:02:00,41.0,37.0,-100.00,WNW,286,0.0,0.0,87,0.00,,,0.00,0.000000,,2013-09-17 14:02:00,
2013-09-17 08:11:00,41.0,37.0,-100.00,WNW,286,0.0,0.0,87,0.00,,,0.00,0.000000,,2013-09-17 14:11:00,
2013-09-17 08:21:00,41.0,37.0,-100.00,WNW,286,0.0,0.0,87,0.00,,,0.00,0.000000,,2013-09-17 14:21:00,
2013-09-17 08:52:00,43.0,38.0,-100.00,North,2,2.0,7.0,84,0.00,,,0.00,4.000000,,2013-09-17 14:52:00,
2013-09-17 09:02:00,43.0,38.0,-100.00,North,2,2.0,7.0,84,0.00,,,0.00,4.000000,,2013-09-17 15:02:00,
2013-09-17 09:11:00,43.0,38.0,-100.00,North,2,2.0,7.0,84,0.00,,,0.00,4.000000,,2013-09-17 15:11:00,
2013-09-17 09:22:00,43.0,38.0,-100.00,North,2,2.0,7.0,84,0.00,,,0.00,4.000000,,2013-09-17 15:22:00,
2013-09-17 09:53:00,43.0,38.0,-100.00,SSE,167,4.0,8.0,82,0.00,,,0.00,25.000000,,2013-09-17 15:53:00,
2013-09-17 10:03:00,43.0,38.0,-100.00,SSE,167,4.0,8.0,82,0.00,,,0.00,25.000000,,2013-09-17 16:03:00,
2013-09-17 10:12:00,43.0,38.0,-100.00,SSE,167,4.0,8.0,82,0.00,,,0.00,25.000000,,2013-09-17 16:12:00,
2013-09-17 10:23:00,43.0,38.0,-100.00,SSE,167,4.0,8.0,82,0.00,,,0.00,25.000000,,2013-09-17 16:23:00,
2013-09-17 10:54:00,50.0,41.0,-100.00,ESE,118,4.0,9.0,71,0.00,,,0.00,138.000000,,2013-09-17 16:54:00,
2013-09-17 11:03:00,50.0,41.0,-100.00,ESE,118,4.0,9.0,71,0.00,,,0.00,138.000000,,2013-09-17 17:03:00,
2013-09-17 11:12:00,50.0,41.0,-100.00,ESE,118,4.0,9.0,71,0.00,,,0.00,138.000000,,2013-09-17 17:12:00,
2013-09-17 11:23:00,50.0,41.0,-100.00,ESE,118,4.0,9.0,71,0.00,,,0.00,138.000000,,2013-09-17 17:23:00,
2013-09-17 11:53:00,50.0,43.0,-100.00,NNW,347,1.0,9.0,78,0.00,,,0.00,63.000000,,2013-09-17 17:53:00,
2013-09-17 12:02:00,50.0,43.0,-100.00,NNW,347,1.0,9.0,78,0.00,,,0.00,63.000000,,2013-09-17 18:02:00,
2013-09-17 12:12:00,50.0,43.0,-100.00,NNW,347,1.0,9.0,78,0.00,,,0.00,63.000000,,2013-09-17 18:12:00,
2013-09-17 12:21:00,50.0,43.0,-100.00,NNW,347,1.0,9.0,78,0.00,,,0.00,63.000000,,2013-09-17 18:21:00,
2013-09-17 12:52:00,50.0,43.0,-100.00,NW,316,1.0,5.0,78,0.00,,,0.00,88.000000,,2013-09-17 18:52:00,
2013-09-17 13:02:00,50.0,43.0,-100.00,NW,316,1.0,5.0,78,0.00,,,0.00,88.000000,,2013-09-17 19:02:00,
2013-09-17 13:11:00,50.0,43.0,-100.00,NW,316,1.0,5.0,78,0.00,,,0.00,88.000000,,2013-09-17 19:11:00,
2013-09-17 13:21:00,50.0,43.0,-100.00,NW,316,1.0,5.0,78,0.00,,,0.00,88.000000,,2013-09-17 19:21:00,
2013-09-17 13:52:00,53.0,45.0,-100.00,NNE,14,0.0,4.0,73,0.00,,,0.00,139.000000,,2013-09-17 19:52:00,
2013-09-17 14:02:00,53.0,45.0,-100.00,NNE,14,0.0,4.0,73,0.00,,,0.00,139.000000,,2013-09-17 20:02:00,
2013-09-17 14:11:00,53.0,45.0,-100.00,NNE,14,0.0,4.0,73,0.00,,,0.00,139.000000,,2013-09-17 20:11:00,
2013-09-17 14:22:00,53.0,45.0,-100.00,NNE,14,0.0,4.0,73,0.00,,,0.00,139.000000,,2013-09-17 20:22:00,
2013-09-17 14:52:00,58.0,45.0,-100.00,West,279,5.0,7.0,63,0.00,,,0.00,358.000000,,2013-09-17 20:52:00,
2013-09-17 15:01:00,58.0,45.0,-100.00,West,279,5.0,7.0,63,0.00,,,0.00,358.000000,,2013-09-17 21:01:00,
2013-09-17 15:12:00,58.0,45.0,-100.00,West,279,5.0,7.0,63,0.00,,,0.00,358.000000,,2013-09-17 21:12:00,
2013-09-17 15:22:00,58.0,45.0,-100.00,West,279,5.0,7.0,63,0.00,,,0.00,358.000000,,2013-09-17 21:22:00,
2013-09-17 15:54:00,63.0,45.0,-100.00,West,279,2.0,8.0,51,0.00,,,0.00,513.000000,,2013-09-17 21:54:00,
2013-09-17 16:04:00,63.0,45.0,-100.00,West,279,2.0,8.0,51,0.00,,,0.00,513.000000,,2013-09-17 22:04:00,
2013-09-17 16:13:00,63.0,45.0,-100.00,West,279,2.0,8.0,51,0.00,,,0.00,513.000000,,2013-09-17 22:13:00,
2013-09-17 16:24:00,63.0,45.0,-100.00,West,279,2.0,8.0,51,0.00,,,0.00,513.000000,,2013-09-17 22:24:00,
2013-09-17 16:53:00,63.0,46.0,-100.00,WNW,293,5.0,10.0,53,0.00,,,0.00,316.000000,,2013-09-17 22:53:00,
2013-09-17 17:03:00,63.0,46.0,-100.00,WNW,293,5.0,10.0,53,0.00,,,0.00,316.000000,,2013-09-17 23:03:00,
2013-09-17 17:12:00,63.0,46.0,-100.00,WNW,293,5.0,10.0,53,0.00,,,0.00,316.000000,,2013-09-17 23:12:00,
2013-09-17 17:21:00,63.0,46.0,-100.00,WNW,293,5.0,10.0,53,0.00,,,0.00,316.000000,,2013-09-17 23:21:00,
2013-09-17 17:52:00,67.0,46.0,-100.00,WNW,296,6.0,8.0,47,0.00,,,0.00,426.000000,,2013-09-17 23:52:00,
2013-09-17 18:02:00,67.0,46.0,-100.00,WNW,296,6.0,8.0,47,0.00,,,0.00,426.000000,,2013-09-18 00:02:00,
2013-09-17 18:11:00,67.0,46.0,-100.00,WNW,296,6.0,8.0,47,0.00,,,0.00,426.000000,,2013-09-18 00:11:00,
2013-09-17 18:22:00,67.0,46.0,-100.00,WNW,296,6.0,8.0,47,0.00,,,0.00,426.000000,,2013-09-18 00:22:00,
2013-09-17 18:52:00,62.0,45.0,-100.00,NW,313,1.0,15.0,54,0.00,,,0.00,233.000000,,2013-09-18 00:52:00,
2013-09-17 19:01:00,62.0,45.0,-100.00,NW,313,1.0,15.0,54,0.00,,,0.00,233.000000,,2013-09-18 01:01:00,
2013-09-17 19:11:00,62.0,45.0,-100.00,NW,313,1.0,15.0,54,0.00,,,0.00,233.000000,,2013-09-18 01:11:00,
2013-09-17 19:21:00,62.0,45.0,-100.00,NW,313,1.0,15.0,54,0.00,,,0.00,233.000000,,2013-09-18 01:21:00,
2013-09-17 19:52:00,62.0,47.0,-100.00,North,350,1.0,7.0,58,0.00,,,0.00,103.000000,,2013-09-18 01:52:00,
2013-09-17 20:03:00,62.0,47.0,-100.00,North,350,1.0,7.0,58,0.00,,,0.00,103.000000,,2013-09-18 02:03:00,
2013-09-17 20:11:00,62.0,47.0,-100.00,North,350,1.0,7.0,58,0.00,,,0.00,103.000000,,2013-09-18 02:11:00,
2013-09-17 20:22:00,62.0,47.0,-100.00,North,350,1.0,7.0,58,0.00,,,0.00,103.000000,,2013-09-18 02:22:00,
2013-09-17 20:52:00,56.0,46.0,-100.00,North,2,0.0,9.0,69,0.00,,,0.00,16.000000,,2013-09-18 02:52:00,
2013-09-17 21:02:00,56.0,46.0,-100.00,North,2,0.0,9.0,69,0.00,,,0.00,16.000000,,2013-09-18 03:02:00,
2013-09-17 21:11:00,56.0,46.0,-100.00,North,2,0.0,9.0,69,0.00,,,0.00,16.000000,,2013-09-18 03:11:00,
2013-09-17 21:23:00,56.0,46.0,-100.00,North,2,0.0,9.0,69,0.00,,,0.00,16.000000,,2013-09-18 03:23:00,
2013-09-17 21:55:00,52.0,47.0,-100.00,East,97,0.0,9.0,82,0.00,,,0.00,0.000000,,2013-09-18 03:55:00,
2013-09-17 22:04:00,52.0,47.0,-100.00,East,97,0.0,9.0,82,0.00,,,0.00,0.000000,,2013-09-18 04:04:00,
2013-09-17 22:14:00,52.0,47.0,-100.00,East,97,0.0,9.0,82,0.00,,,0.00,0.000000,,2013-09-18 04:14:00,
2013-09-17 22:24:00,52.0,47.0,-100.00,East,97,0.0,9.0,82,0.00,,,0.00,0.000000,,2013-09-18 04:24:00,
2013-09-17 22:54:00,51.0,48.0,-100.00,ESE,115,0.0,3.0,89,0.00,,,0.00,0.000000,,2013-09-18 04:54:00,
2013-09-17 23:04:00,51.0,48.0,-100.00,ESE,115,0.0,3.0,89,0.00,,,0.00,0.000000,,2013-09-18 05:04:00,
2013-09-17 23:12:00,51.0,48.0,-100.00,ESE,115,0.0,3.0,89,0.00,,,0.00,0.000000,,2013-09-18 05:12:00,
2013-09-17 23:23:00,51.0,48.0,-100.00,ESE,115,0.0,3.0,89,0.00,,,0.00,0.000000,,2013-09-18 05:23:00,
2013-09-17 23:53:00,49.0,47.0,-100.00,NW,324,0.0,5.0,93,0.00,,,0.00,0.000000,,2013-09-18 05:53:00,